Accueil
METAR-TAF:

METAR-TAF

Aéroports :

Waskish Municipal Airport

Waskish, Minnesota, États-Unis

latitude: 48-09-15N, longitude: 094-31-01W, altitude: 360 m

Observation

Le bulletin a été fait il y a 39 minutes, à 13:51 UTC
Vent calme
Température 21°C
Humidité 53%
Pression 1011 hPa
Visibilité: 16.1 km
Ciel clair

METAR: KVWU 021351Z AUTO 00000KT 10SM CLR 21/11 A2984 RMK AO2

Heure: 09:30 (14:30 UTC)


TAF: absent

Observations et prévisions météorologiques de plus de 4000 aéroports (messages METAR et TAF).

Les stations disponibles sont représentées par des disques jaunes et rouges sur la carte.

Passer la souris dessus pour voir le nom de la station.

Cliquer dessus pour voir les observations et prévisions météorologiques.

Pour changer de carte: cliquez sur les boutons verts avec une croix noire pour zoomer, sur le bouton vert avec un tiret pour effectuer un zoom arrière, ou sur les flèches vertes pour les cartes adjacentes.


METAR-TAF: